Time;durP1;ratioP1;P1;durP2;ratioP2;P2;SDS_P1;SDS_P2;PMS_P1;PMS_P2;Temp;Humidity;BMP_temperature;BMP_pressure;BME280_temperature;BME280_humidity;BME280_pressure;Samples;Min_cycle;Max_cycle;Signal;HPM_P1;HPM_P2
2022/07/24 00:00:34;;;;;;;3.45;2.28;;;24.90;51.50;;;;;;5072305;28;20027;-77
2022/07/24 00:03:00;;;;;;;3.15;2.30;;;24.80;51.50;;;;;;5074255;28;20036;-77
2022/07/24 00:05:26;;;;;;;2.55;2.10;;;24.80;51.60;;;;;;5052631;28;20428;-78
2022/07/24 00:07:52;;;;;;;2.42;2.10;;;24.80;51.60;;;;;;5055341;28;20024;-80
2022/07/24 00:10:17;;;;;;;3.35;2.30;;;24.70;51.60;;;;;;5091845;28;20033;-78
2022/07/24 00:12:43;;;;;;;2.88;2.20;;;24.70;51.70;;;;;;5073062;28;20078;-79
2022/07/24 00:15:09;;;;;;;2.90;2.17;;;24.70;51.80;;;;;;5071308;28;20429;-82
2022/07/24 00:17:35;;;;;;;2.58;2.10;;;24.60;51.80;;;;;;5069650;28;20035;-78
2022/07/24 00:20:01;;;;;;;2.63;1.98;;;24.60;51.90;;;;;;5059062;28;20024;-79
2022/07/24 00:22:27;;;;;;;2.58;1.92;;;24.60;51.90;;;;;;5084433;28;20032;-82
2022/07/24 00:24:52;;;;;;;2.47;1.98;;;24.60;52.00;;;;;;5074464;28;20028;-78
2022/07/24 00:27:18;;;;;;;2.60;2.05;;;24.50;51.90;;;;;;5071472;28;20082;-79
2022/07/24 00:29:44;;;;;;;2.58;2.05;;;24.50;52.00;;;;;;5068718;28;20048;-79
2022/07/24 00:32:09;;;;;;;3.30;2.28;;;24.50;52.10;;;;;;5069561;28;20429;-81
2022/07/24 00:34:35;;;;;;;2.83;2.03;;;24.40;52.10;;;;;;5058242;28;20055;-82
2022/07/24 00:37:01;;;;;;;2.67;1.92;;;24.40;52.10;;;;;;5075508;28;20058;-78
2022/07/24 00:39:27;;;;;;;2.35;1.88;;;24.40;52.20;;;;;;5070842;28;20432;-78
2022/07/24 00:41:52;;;;;;;3.35;2.38;;;24.40;52.20;;;;;;5073768;28;20036;-78
2022/07/24 00:44:19;;;;;;;2.80;2.20;;;24.30;52.20;;;;;;5040553;28;20036;-78
2022/07/24 00:46:46;;;;;;;3.40;2.22;;;24.30;52.30;;;;;;5067361;28;20097;-78
2022/07/24 00:49:16;;;;;;;2.97;2.22;;;24.20;52.30;;;;;;5087105;28;20106;-78
2022/07/24 00:51:44;;;;;;;2.83;2.28;;;24.30;52.50;;;;;;5070468;28;20028;-77
2022/07/24 00:54:12;;;;;;;3.03;2.25;;;24.20;52.40;;;;;;5086111;28;20035;-78
2022/07/24 00:56:38;;;;;;;3.28;2.53;;;24.20;52.50;;;;;;5087740;28;20072;-77
2022/07/24 00:59:04;;;;;;;3.33;2.17;;;24.20;52.60;;;;;;5071810;28;20020;-78
2022/07/24 01:01:31;;;;;;;3.13;2.20;;;24.10;52.50;;;;;;5071374;28;20043;-83
2022/07/24 01:03:57;;;;;;;3.58;2.45;;;24.10;52.60;;;;;;5052158;28;20033;-79
2022/07/24 01:06:24;;;;;;;2.85;2.35;;;24.10;52.60;;;;;;5050066;28;20081;-78
2022/07/24 01:08:51;;;;;;;3.38;2.40;;;24.00;52.60;;;;;;5065649;28;20044;-80
2022/07/24 01:11:18;;;;;;;4.18;2.60;;;24.00;52.70;;;;;;5051288;28;20116;-79
2022/07/24 01:13:43;;;;;;;3.35;2.45;;;24.00;52.70;;;;;;5036205;28;20087;-78
2022/07/24 01:16:09;;;;;;;3.35;2.58;;;24.00;52.80;;;;;;5038081;28;20389;-78
2022/07/24 01:18:36;;;;;;;3.60;2.47;;;23.90;52.80;;;;;;5040245;28;20024;-80
2022/07/24 01:21:03;;;;;;;3.17;2.33;;;23.90;52.90;;;;;;5017739;28;20025;-78
2022/07/24 01:23:28;;;;;;;3.28;2.65;;;23.90;52.90;;;;;;5050587;28;20017;-80
2022/07/24 01:25:54;;;;;;;2.92;2.40;;;23.80;52.90;;;;;;5069801;28;20059;-78
2022/07/24 01:28:20;;;;;;;2.97;2.40;;;23.80;52.90;;;;;;5047079;28;20047;-78
2022/07/24 01:30:46;;;;;;;4.45;2.72;;;23.80;52.90;;;;;;5020009;28;20075;-79
2022/07/24 01:33:13;;;;;;;3.08;2.35;;;23.80;53.00;;;;;;5052315;28;20067;-78
2022/07/24 01:35:40;;;;;;;3.08;2.53;;;23.70;53.00;;;;;;5034772;28;20049;-81
2022/07/24 01:38:06;;;;;;;3.72;2.80;;;23.70;53.10;;;;;;5047488;28;20036;-78
2022/07/24 01:40:32;;;;;;;3.70;2.65;;;23.70;53.10;;;;;;5014665;28;20124;-83
2022/07/24 01:42:57;;;;;;;3.55;2.60;;;23.70;53.20;;;;;;5048468;28;20029;-79
2022/07/24 01:45:23;;;;;;;4.55;2.65;;;23.60;53.10;;;;;;5035806;28;20472;-81
2022/07/24 01:47:49;;;;;;;3.22;2.53;;;23.60;53.20;;;;;;5055256;28;20151;-80
2022/07/24 01:50:15;;;;;;;3.85;2.55;;;23.60;53.20;;;;;;5037402;28;20384;-80
2022/07/24 01:52:40;;;;;;;3.03;2.33;;;23.60;53.30;;;;;;5050853;28;20032;-80
2022/07/24 01:55:07;;;;;;;3.17;2.60;;;23.50;53.30;;;;;;5034334;28;20395;-82
2022/07/24 01:57:33;;;;;;;4.07;2.90;;;23.50;53.30;;;;;;4998711;28;20033;-79
2022/07/24 01:59:59;;;;;;;4.10;2.45;;;23.50;53.40;;;;;;5029862;28;20029;-78
2022/07/24 02:02:26;;;;;;;4.00;2.85;;;23.40;53.40;;;;;;5046579;28;20453;-78
2022/07/24 02:04:52;;;;;;;3.35;2.58;;;23.40;53.40;;;;;;5071543;28;20060;-78
2022/07/24 02:07:18;;;;;;;4.10;2.63;;;23.40;53.40;;;;;;5058909;28;20048;-79
2022/07/24 02:09:44;;;;;;;4.60;2.83;;;23.40;53.50;;;;;;5077117;28;20370;-78
2022/07/24 02:12:10;;;;;;;4.05;3.00;;;23.40;53.50;;;;;;5045506;28;20082;-78
2022/07/24 02:14:36;;;;;;;3.75;2.63;;;23.30;53.60;;;;;;5077381;28;20549;-79
2022/07/24 02:17:01;;;;;;;3.47;2.78;;;23.30;53.60;;;;;;5059013;28;20396;-80
2022/07/24 02:19:27;;;;;;;3.97;2.45;;;23.30;53.60;;;;;;5074428;28;20039;-79
2022/07/24 02:21:53;;;;;;;3.60;2.78;;;23.20;53.60;;;;;;5086556;28;20039;-77
2022/07/24 02:24:19;;;;;;;3.80;2.80;;;23.20;53.60;;;;;;5090549;28;20032;-79
2022/07/24 02:26:45;;;;;;;4.07;3.00;;;23.20;53.70;;;;;;5063063;28;20044;-78
2022/07/24 02:29:11;;;;;;;3.72;2.70;;;23.20;53.70;;;;;;5074274;28;20050;-78
2022/07/24 02:31:36;;;;;;;3.35;2.65;;;23.20;53.80;;;;;;5056607;28;20031;-81
2022/07/24 02:34:02;;;;;;;4.00;2.65;;;23.10;53.80;;;;;;5071058;28;20029;-79
2022/07/24 02:36:28;;;;;;;2.95;2.33;;;23.10;53.80;;;;;;5072621;28;20031;-78
2022/07/24 02:38:54;;;;;;;3.78;2.92;;;23.10;53.80;;;;;;5072493;28;20033;-81
2022/07/24 02:41:19;;;;;;;3.30;2.53;;;23.10;53.80;;;;;;5058253;28;20060;-79
2022/07/24 02:43:45;;;;;;;3.33;2.40;;;23.10;53.90;;;;;;5091627;28;20028;-79
2022/07/24 02:46:11;;;;;;;3.50;2.70;;;23.00;53.90;;;;;;5073506;28;20731;-80
2022/07/24 02:48:36;;;;;;;3.22;2.58;;;23.00;53.90;;;;;;5045426;28;20028;-81
2022/07/24 02:51:03;;;;;;;5.45;3.08;;;23.00;53.90;;;;;;5058075;28;20074;-78
2022/07/24 02:53:28;;;;;;;3.45;2.80;;;23.00;53.90;;;;;;5058144;28;20084;-78
2022/07/24 02:55:54;;;;;;;3.65;2.70;;;22.90;53.90;;;;;;5070327;28;20037;-78
2022/07/24 02:58:20;;;;;;;3.85;2.70;;;22.90;54.00;;;;;;5073344;28;20444;-79
2022/07/24 03:00:46;;;;;;;3.70;2.80;;;22.90;54.00;;;;;;5058463;28;20119;-80
2022/07/24 03:03:12;;;;;;;3.92;3.15;;;22.80;54.00;;;;;;5076356;28;20129;-84
2022/07/24 03:05:37;;;;;;;3.45;2.70;;;22.80;54.00;;;;;;5096078;28;20097;-78
2022/07/24 03:08:04;;;;;;;3.63;2.83;;;22.80;54.10;;;;;;5054822;28;20111;-84
2022/07/24 03:10:29;;;;;;;3.85;2.70;;;22.80;54.10;;;;;;5072066;28;20042;-79
2022/07/24 03:12:55;;;;;;;4.18;2.88;;;22.80;54.20;;;;;;5071315;28;20028;-78
2022/07/24 03:15:21;;;;;;;3.78;2.80;;;22.70;54.20;;;;;;5088657;28;20073;-78
2022/07/24 03:17:52;;;;;;;3.80;2.70;;;22.70;54.20;;;;;;5066821;28;20051;-84
2022/07/24 03:20:18;;;;;;;3.75;2.70;;;22.70;54.30;;;;;;5040838;28;20418;-80
2022/07/24 03:22:44;;;;;;;4.13;2.90;;;22.70;54.30;;;;;;5072305;28;20103;-79
2022/07/24 03:25:10;;;;;;;3.25;2.50;;;22.70;54.30;;;;;;5072728;28;20028;-79
2022/07/24 03:27:36;;;;;;;3.72;2.85;;;22.60;54.30;;;;;;5072729;28;20035;-78
2022/07/24 03:30:03;;;;;;;4.28;3.03;;;22.60;54.30;;;;;;5075118;28;20055;-81
2022/07/24 03:32:29;;;;;;;3.85;2.70;;;22.60;54.40;;;;;;5084592;28;20020;-80
2022/07/24 03:34:55;;;;;;;3.95;3.05;;;22.60;54.40;;;;;;5076302;28;20039;-78
2022/07/24 03:37:21;;;;;;;3.45;2.67;;;22.50;54.40;;;;;;5058411;28;20397;-79
2022/07/24 03:39:46;;;;;;;3.90;2.72;;;22.50;54.40;;;;;;5057340;28;20032;-79
2022/07/24 03:42:12;;;;;;;3.65;3.03;;;22.50;54.40;;;;;;5057863;28;20388;-78
2022/07/24 03:44:38;;;;;;;4.22;2.95;;;22.50;54.40;;;;;;5074537;28;20043;-84
2022/07/24 03:47:04;;;;;;;4.07;3.00;;;22.40;54.40;;;;;;5073461;28;20043;-80
2022/07/24 03:49:29;;;;;;;4.18;2.97;;;22.40;54.50;;;;;;5089773;28;20042;-79
2022/07/24 03:51:55;;;;;;;3.10;2.45;;;22.40;54.50;;;;;;5074553;28;20119;-78
2022/07/24 03:54:21;;;;;;;3.10;2.60;;;22.40;54.50;;;;;;5061091;28;20059;-80
2022/07/24 03:56:48;;;;;;;3.85;3.05;;;22.30;54.50;;;;;;5073660;28;20035;-80
2022/07/24 03:59:13;;;;;;;4.43;3.15;;;22.30;54.50;;;;;;5071943;28;20028;-78
2022/07/24 04:01:39;;;;;;;4.57;3.35;;;22.40;54.60;;;;;;5073956;28;20430;-79
2022/07/24 04:04:05;;;;;;;3.97;2.92;;;22.30;55.30;;;;;;5055093;28;20040;-78
2022/07/24 04:06:32;;;;;;;3.80;2.88;;;22.30;54.60;;;;;;5056276;28;20036;-81
2022/07/24 04:08:59;;;;;;;4.40;3.10;;;22.20;54.60;;;;;;5072760;28;20031;-79
2022/07/24 04:11:25;;;;;;;4.35;2.90;;;22.20;54.70;;;;;;5069524;28;20503;-81
2022/07/24 04:13:51;;;;;;;3.97;3.00;;;22.20;54.70;;;;;;5072767;28;20032;-81
2022/07/24 04:16:17;;;;;;;4.13;2.95;;;22.20;54.70;;;;;;5068824;28;20059;-78
2022/07/24 04:18:43;;;;;;;3.25;2.72;;;22.10;54.70;;;;;;5070563;28;20020;-79
2022/07/24 04:21:09;;;;;;;3.85;3.03;;;22.20;54.80;;;;;;5072599;28;20103;-78
2022/07/24 04:23:35;;;;;;;3.88;2.88;;;22.10;54.80;;;;;;5056088;28;20051;-79
2022/07/24 04:26:01;;;;;;;3.65;2.60;;;22.10;54.80;;;;;;5081020;28;20488;-79
2022/07/24 04:28:26;;;;;;;3.80;2.88;;;22.10;54.90;;;;;;5071974;28;20076;-83
2022/07/24 04:30:52;;;;;;;4.22;3.05;;;22.10;54.90;;;;;;5056151;28;20035;-80
2022/07/24 04:33:18;;;;;;;4.15;3.10;;;22.00;54.80;;;;;;5059729;28;21610;-78
2022/07/24 04:35:44;;;;;;;5.18;3.25;;;22.00;54.90;;;;;;5058602;28;20105;-80
2022/07/24 04:38:09;;;;;;;3.63;2.80;;;22.00;54.90;;;;;;5072068;28;20055;-78
2022/07/24 04:40:35;;;;;;;3.83;2.83;;;22.00;55.00;;;;;;5053740;28;20405;-81
2022/07/24 04:43:01;;;;;;;4.10;3.00;;;22.00;55.10;;;;;;5068276;28;20050;-80
2022/07/24 04:45:27;;;;;;;3.90;2.90;;;22.00;55.00;;;;;;5053347;28;20031;-80
2022/07/24 04:47:52;;;;;;;3.60;2.47;;;21.90;55.00;;;;;;5087697;28;20035;-87
2022/07/24 04:50:18;;;;;;;3.35;2.67;;;21.90;55.10;;;;;;5059415;28;20081;-79
2022/07/24 04:52:44;;;;;;;3.33;2.92;;;21.90;55.10;;;;;;5070474;28;20415;-81
2022/07/24 04:55:10;;;;;;;3.65;2.60;;;21.90;55.20;;;;;;5085009;28;20032;-81
2022/07/24 04:57:36;;;;;;;3.72;2.95;;;21.90;55.80;;;;;;5069333;28;20444;-81
2022/07/24 05:00:06;;;;;;;4.15;2.97;;;21.90;55.20;;;;;;5036406;28;20038;-79
2022/07/24 05:02:32;;;;;;;4.35;2.95;;;21.80;55.30;;;;;;5082093;28;20151;-78
2022/07/24 05:04:58;;;;;;;4.30;3.13;;;21.90;55.30;;;;;;5085643;28;20083;-79
2022/07/24 05:07:23;;;;;;;3.33;2.83;;;21.90;55.30;;;;;;5055153;28;20040;-79
2022/07/24 05:09:49;;;;;;;3.13;2.55;;;21.80;55.30;;;;;;5056550;28;20074;-79
2022/07/24 05:12:15;;;;;;;5.15;3.10;;;21.80;55.40;;;;;;5040859;28;20047;-81
2022/07/24 05:14:41;;;;;;;4.32;3.10;;;21.80;55.40;;;;;;5086730;28;20107;-78
2022/07/24 05:17:07;;;;;;;3.75;3.00;;;21.80;55.40;;;;;;5095948;28;20062;-80
2022/07/24 05:19:33;;;;;;;4.07;3.00;;;21.80;55.40;;;;;;5068650;28;20051;-79
2022/07/24 05:21:58;;;;;;;3.53;2.83;;;21.70;55.40;;;;;;5070839;28;20035;-79
2022/07/24 05:24:27;;;;;;;3.85;2.88;;;21.70;55.40;;;;;;5051005;28;20032;-79
2022/07/24 05:26:53;;;;;;;4.28;3.25;;;21.70;55.50;;;;;;5054019;28;20043;-79
2022/07/24 05:29:19;;;;;;;4.10;3.20;;;21.70;55.50;;;;;;5068845;28;20101;-79
2022/07/24 05:31:46;;;;;;;3.75;3.00;;;21.70;55.60;;;;;;5040175;28;20123;-79
2022/07/24 05:34:13;;;;;;;3.45;2.88;;;21.70;55.60;;;;;;5067797;28;20061;-79
2022/07/24 05:36:39;;;;;;;4.93;3.17;;;21.70;55.60;;;;;;5055909;28;20036;-79
2022/07/24 05:39:05;;;;;;;4.22;3.33;;;21.70;55.70;;;;;;5053223;28;20036;-78
2022/07/24 05:41:32;;;;;;;4.55;3.47;;;21.70;55.70;;;;;;5056812;28;20071;-77
2022/07/24 05:43:57;;;;;;;4.72;3.58;;;21.70;55.70;;;;;;5072851;28;20111;-79
2022/07/24 05:46:23;;;;;;;4.07;3.22;;;21.70;55.80;;;;;;5085731;28;20131;-78
2022/07/24 05:48:49;;;;;;;5.63;3.60;;;21.70;56.40;;;;;;5080742;28;20052;-79
2022/07/24 05:51:14;;;;;;;5.40;3.80;;;21.70;55.80;;;;;;5065837;28;20044;-79
2022/07/24 05:53:40;;;;;;;5.32;3.78;;;21.70;55.90;;;;;;5069567;28;20458;-82
2022/07/24 05:56:06;;;;;;;4.45;3.50;;;21.70;55.90;;;;;;5084959;28;20085;-79
2022/07/24 05:58:32;;;;;;;5.57;3.80;;;21.70;55.90;;;;;;5070204;28;20028;-78
2022/07/24 06:00:58;;;;;;;4.80;3.72;;;21.70;55.90;;;;;;5071550;28;20021;-82
2022/07/24 06:03:23;;;;;;;4.60;3.47;;;21.70;55.90;;;;;;5071810;28;20094;-78
2022/07/24 06:05:49;;;;;;;5.35;3.67;;;21.70;55.90;;;;;;5067157;28;20037;-83
2022/07/24 06:08:16;;;;;;;5.45;3.60;;;21.70;55.90;;;;;;5071940;28;20036;-79
2022/07/24 06:10:41;;;;;;;5.40;3.50;;;21.70;55.90;;;;;;5058696;28;20100;-78
2022/07/24 06:13:07;;;;;;;4.43;3.60;;;21.70;55.90;;;;;;5074486;28;20036;-79
2022/07/24 06:15:33;;;;;;;5.63;3.90;;;21.70;55.90;;;;;;5073294;28;20039;-78
2022/07/24 06:17:59;;;;;;;4.90;3.58;;;21.70;55.90;;;;;;5058034;28;20621;-81
2022/07/24 06:20:24;;;;;;;4.00;3.20;;;21.70;55.90;;;;;;5065181;28;20484;-78
2022/07/24 06:22:50;;;;;;;5.53;3.33;;;21.70;55.90;;;;;;5056291;28;20103;-82
2022/07/24 06:25:17;;;;;;;4.55;3.53;;;21.70;55.90;;;;;;5051036;28;20043;-78
2022/07/24 06:27:44;;;;;;;4.88;3.55;;;21.70;55.90;;;;;;5082937;28;20165;-79
2022/07/24 06:30:18;;;;;;;4.20;3.35;;;21.80;56.00;;;;;;5087609;28;20043;-83
2022/07/24 06:32:44;;;;;;;4.95;3.42;;;21.80;56.00;;;;;;5070943;28;20107;-82
2022/07/24 06:35:11;;;;;;;5.13;3.72;;;21.80;55.90;;;;;;5071483;28;20170;-78
2022/07/24 06:37:37;;;;;;;4.50;3.25;;;21.80;55.90;;;;;;5069644;28;20633;-82
2022/07/24 06:40:04;;;;;;;4.20;3.30;;;21.80;55.90;;;;;;5082638;28;20036;-80
2022/07/24 06:42:30;;;;;;;5.07;3.60;;;21.80;55.90;;;;;;5069951;28;20042;-80
2022/07/24 06:44:56;;;;;;;3.92;2.92;;;21.80;55.90;;;;;;5070258;28;20039;-78
2022/07/24 06:47:22;;;;;;;4.20;3.20;;;21.90;55.90;;;;;;5075269;28;20043;-79
2022/07/24 06:49:47;;;;;;;4.18;3.28;;;21.90;55.90;;;;;;5046951;28;20119;-78
2022/07/24 06:52:13;;;;;;;3.92;3.20;;;21.90;56.00;;;;;;5063947;28;20104;-78
2022/07/24 06:54:39;;;;;;;4.50;2.88;;;21.90;55.90;;;;;;5068320;28;20078;-80
2022/07/24 06:57:05;;;;;;;4.68;3.22;;;21.80;55.90;;;;;;5060495;28;20090;-80
2022/07/24 06:59:30;;;;;;;3.78;3.15;;;21.90;55.90;;;;;;5072376;28;20098;-78
2022/07/24 07:01:56;;;;;;;3.88;3.13;;;21.90;55.90;;;;;;5091060;28;20071;-80
2022/07/24 07:04:22;;;;;;;4.93;3.67;;;21.90;55.90;;;;;;5053171;28;20617;-78
2022/07/24 07:06:47;;;;;;;4.40;3.25;;;21.90;56.00;;;;;;5074896;28;20119;-80
2022/07/24 07:09:13;;;;;;;4.30;3.05;;;22.00;56.00;;;;;;5080258;28;20126;-79
2022/07/24 07:11:39;;;;;;;4.63;3.33;;;22.00;56.00;;;;;;5058601;28;20016;-78
2022/07/24 07:14:05;;;;;;;5.45;3.15;;;22.00;56.00;;;;;;5073907;28;20024;-79
2022/07/24 07:16:31;;;;;;;4.32;3.20;;;22.00;56.10;;;;;;5059007;28;20464;-79
2022/07/24 07:18:57;;;;;;;4.15;3.30;;;22.00;56.10;;;;;;5088835;28;20043;-80
2022/07/24 07:21:22;;;;;;;4.68;3.08;;;22.10;56.20;;;;;;5074323;28;20131;-79
2022/07/24 07:23:48;;;;;;;4.40;3.20;;;22.10;56.10;;;;;;5072810;28;20082;-80
2022/07/24 07:26:14;;;;;;;3.50;2.85;;;22.10;56.10;;;;;;5074108;28;20043;-80
2022/07/24 07:28:39;;;;;;;4.40;2.92;;;22.10;56.10;;;;;;5056430;28;20077;-79
2022/07/24 07:31:05;;;;;;;3.60;2.90;;;22.10;56.10;;;;;;5075422;28;20048;-78
2022/07/24 07:33:31;;;;;;;3.63;2.90;;;22.10;56.00;;;;;;5080301;28;20034;-80
2022/07/24 07:35:56;;;;;;;3.40;2.75;;;22.10;56.00;;;;;;5055655;28;20388;-82
2022/07/24 07:38:22;;;;;;;3.65;2.70;;;22.20;56.00;;;;;;5057007;28;20479;-79
2022/07/24 07:40:48;;;;;;;4.10;3.05;;;22.20;56.00;;;;;;5071708;28;20032;-83
2022/07/24 07:43:14;;;;;;;3.65;2.78;;;22.20;56.00;;;;;;5053992;28;20088;-78
2022/07/24 07:45:39;;;;;;;3.28;2.58;;;22.20;56.00;;;;;;5069589;28;20032;-78
2022/07/24 07:48:05;;;;;;;4.10;2.80;;;22.20;56.00;;;;;;5055150;28;20040;-80
2022/07/24 07:50:31;;;;;;;4.07;2.85;;;22.30;56.00;;;;;;5071608;28;20035;-80
2022/07/24 07:52:57;;;;;;;3.72;2.67;;;22.30;56.00;;;;;;5088970;28;20456;-82
2022/07/24 07:55:23;;;;;;;3.55;2.60;;;22.30;56.00;;;;;;5076149;28;20075;-79
2022/07/24 07:57:49;;;;;;;3.30;2.50;;;22.40;56.00;;;;;;5087794;28;20024;-86
2022/07/24 08:00:16;;;;;;;5.15;2.67;;;22.40;55.90;;;;;;5059543;28;20043;-81
2022/07/24 08:02:42;;;;;;;4.93;2.70;;;22.50;56.10;;;;;;5069677;28;20079;-80
2022/07/24 08:05:08;;;;;;;4.25;2.67;;;22.50;56.30;;;;;;5053774;28;20036;-82
2022/07/24 08:07:34;;;;;;;3.65;2.70;;;22.60;56.40;;;;;;5052938;28;20038;-81
2022/07/24 08:10:00;;;;;;;4.55;2.85;;;22.70;56.60;;;;;;5053211;28;20111;-84
2022/07/24 08:12:26;;;;;;;3.63;2.70;;;22.80;56.50;;;;;;5059046;28;20040;-83
2022/07/24 08:14:51;;;;;;;3.47;2.58;;;22.90;56.50;;;;;;5073569;28;20036;-81
2022/07/24 08:17:17;;;;;;;4.05;2.85;;;23.00;56.40;;;;;;5054968;28;20032;-82
2022/07/24 08:19:43;;;;;;;3.83;2.92;;;23.10;56.30;;;;;;5055979;28;20028;-84
2022/07/24 08:22:09;;;;;;;3.67;2.65;;;23.20;56.20;;;;;;5069292;28;20046;-82
2022/07/24 08:24:34;;;;;;;3.53;2.60;;;23.30;56.10;;;;;;5056358;28;20400;-80
2022/07/24 08:27:00;;;;;;;2.72;2.22;;;23.40;56.00;;;;;;5056381;28;20084;-81
2022/07/24 08:29:26;;;;;;;2.85;2.30;;;23.50;55.90;;;;;;5072025;28;20024;-81
2022/07/24 08:31:52;;;;;;;3.60;2.58;;;23.60;55.80;;;;;;5054990;28;20028;-80
2022/07/24 08:34:18;;;;;;;3.13;2.33;;;23.70;55.60;;;;;;5089322;28;20117;-81
2022/07/24 08:36:45;;;;;;;3.58;2.53;;;23.80;55.50;;;;;;5072260;28;20118;-81
2022/07/24 08:39:12;;;;;;;3.33;2.40;;;23.90;55.40;;;;;;5053457;28;20032;-81
2022/07/24 08:41:38;;;;;;;3.28;2.50;;;24.00;55.20;;;;;;5071830;28;20040;-80
2022/07/24 08:44:05;;;;;;;2.92;2.15;;;24.10;55.10;;;;;;5057473;28;20139;-83
2022/07/24 08:46:32;;;;;;;2.60;2.17;;;24.20;55.00;;;;;;5077363;28;20548;-79
2022/07/24 08:48:58;;;;;;;2.90;2.22;;;24.30;54.80;;;;;;5070405;28;20130;-79
2022/07/24 08:51:35;;;;;;;2.60;1.90;;;24.40;54.60;;;;;;5070631;28;20036;-79
2022/07/24 08:54:02;;;;;;;2.95;2.10;;;24.60;54.60;;;;;;5075088;28;20020;-80
2022/07/24 08:56:28;;;;;;;3.60;2.03;;;24.60;54.30;;;;;;5057965;28;20028;-77
2022/07/24 08:58:54;;;;;;;3.30;2.17;;;24.80;54.20;;;;;;5054541;28;20031;-79
2022/07/24 09:01:20;;;;;;;3.70;2.50;;;24.90;54.10;;;;;;5057799;28;20028;-80
2022/07/24 09:03:46;;;;;;;2.15;1.75;;;25.00;54.00;;;;;;5040487;28;20048;-78
2022/07/24 09:06:14;;;;;;;3.47;2.25;;;25.10;53.90;;;;;;5052630;28;20036;-82
2022/07/24 09:09:03;;;;;;;2.13;1.90;;;25.20;53.80;;;;;;5056160;28;20021;-82
2022/07/24 09:11:30;;;;;;;2.40;2.17;;;25.30;53.70;;;;;;5068979;28;20016;-81
2022/07/24 09:16:46;;;;;;;2.30;1.90;;;25.50;53.30;;;;;;5076205;28;20433;-89
2022/07/24 09:19:13;;;;;;;2.33;1.80;;;25.60;53.20;;;;;;5073328;28;20127;-84
2022/07/24 09:21:41;;;;;;;2.60;2.20;;;25.70;53.20;;;;;;5062956;28;20028;-83
2022/07/24 09:24:18;;;;;;;3.70;2.28;;;25.90;53.10;;;;;;5076166;28;20024;-82
2022/07/24 09:26:48;;;;;;;3.15;2.25;;;26.00;52.90;;;;;;5074256;28;20032;-82
2022/07/24 09:29:16;;;;;;;2.25;1.73;;;26.00;52.60;;;;;;5091589;28;20028;-82
2022/07/24 09:31:50;;;;;;;2.67;1.80;;;26.10;52.50;;;;;;5044178;28;20035;-83
2022/07/24 09:34:16;;;;;;;2.08;1.80;;;26.20;52.30;;;;;;5070514;28;20032;-83
2022/07/24 09:37:00;;;;;;;2.88;1.98;;;26.30;52.00;;;;;;5072304;28;20036;-85
2022/07/24 09:39:27;;;;;;;2.75;2.13;;;26.40;51.90;;;;;;5069579;28;20044;-85
2022/07/24 09:41:56;;;;;;;2.25;1.92;;;26.50;51.90;;;;;;5073736;28;20025;-85
2022/07/24 09:44:31;;;;;;;2.88;1.92;;;26.70;52.10;;;;;;5074889;28;20032;-95
2022/07/24 09:47:11;;;;;;;2.63;1.88;;;26.70;52.00;;;;;;5085458;28;20040;-90
2022/07/24 09:49:38;;;;;;;2.00;1.80;;;26.90;51.90;;;;;;5072364;28;20020;-92
2022/07/24 09:52:20;;;;;;;2.45;1.83;;;27.00;51.70;;;;;;5072075;28;20024;-90
2022/07/24 09:54:55;;;;;;;2.45;1.60;;;27.10;51.60;;;;;;5077267;28;20027;-91
2022/07/24 09:57:29;;;;;;;2.38;1.90;;;27.20;51.20;;;;;;5075353;28;20039;-90
2022/07/24 10:00:07;;;;;;;2.33;1.70;;;27.20;51.10;;;;;;5085584;28;20735;-94
2022/07/24 10:02:36;;;;;;;2.63;2.00;;;27.30;50.90;;;;;;5075193;28;20020;-89
2022/07/24 10:05:06;;;;;;;2.53;1.80;;;27.40;50.70;;;;;;5076697;28;20024;-88
2022/07/24 10:07:37;;;;;;;1.55;1.45;;;27.50;50.60;;;;;;5086502;28;20111;-87
2022/07/24 10:10:07;;;;;;;1.70;1.60;;;27.60;50.50;;;;;;5057224;28;20020;-85
2022/07/24 10:12:33;;;;;;;2.05;1.80;;;27.70;50.40;;;;;;5069520;28;20969;-84
2022/07/24 10:15:03;;;;;;;2.50;1.40;;;27.80;50.30;;;;;;5055311;28;20024;-85
2022/07/24 10:17:41;;;;;;;1.60;1.50;;;27.90;50.20;;;;;;5044287;28;20025;-86
2022/07/24 10:20:09;;;;;;;1.85;1.60;;;27.90;50.00;;;;;;5068965;28;20476;-83
2022/07/24 10:22:53;;;;;;;2.63;1.50;;;28.10;49.90;;;;;;5089908;28;20028;-87
2022/07/24 10:25:27;;;;;;;2.73;1.87;;;28.10;49.80;;;;;;5080098;28;20089;-90
2022/07/24 10:27:58;;;;;;;1.55;1.40;;;28.20;49.60;;;;;;5064466;28;20028;-90
2022/07/24 10:30:25;;;;;;;1.90;1.63;;;28.30;49.50;;;;;;5060359;28;20024;-88
2022/07/24 10:32:56;;;;;;;1.83;1.52;;;28.40;49.30;;;;;;5065389;28;20380;-93
2022/07/24 10:35:27;;;;;;;1.65;1.55;;;28.50;49.20;;;;;;5070551;28;20035;-87
2022/07/24 10:38:12;;;;;;;1.58;1.48;;;28.60;49.20;;;;;;5072615;28;20031;-86
2022/07/24 10:40:51;;;;;;;1.83;1.50;;;28.70;49.00;;;;;;5072906;28;20020;-87
2022/07/24 10:43:19;;;;;;;1.52;1.38;;;28.80;48.80;;;;;;5072046;28;20036;-88
2022/07/24 10:45:46;;;;;;;1.77;1.50;;;28.90;48.70;;;;;;5059524;28;20043;-87
2022/07/24 10:48:26;;;;;;;2.95;1.80;;;28.90;48.50;;;;;;5060443;28;20032;-82
2022/07/24 10:50:59;;;;;;;1.75;1.60;;;29.00;48.40;;;;;;5075102;28;20028;-85
2022/07/24 10:53:26;;;;;;;2.08;1.60;;;29.10;48.10;;;;;;5085538;28;20032;-83
2022/07/24 10:55:54;;;;;;;2.00;1.58;;;29.10;47.90;;;;;;5060295;28;20032;-82
2022/07/24 10:58:21;;;;;;;1.42;1.33;;;29.20;47.80;;;;;;5051390;28;20039;-85
2022/07/24 11:00:49;;;;;;;1.75;1.60;;;29.30;47.70;;;;;;5051938;28;20446;-82
2022/07/24 11:03:19;;;;;;;1.63;1.50;;;29.40;47.70;;;;;;5071830;28;20117;-84
2022/07/24 11:06:11;;;;;;;1.90;1.50;;;29.40;47.30;;;;;;5069806;28;20460;-83
2022/07/24 11:08:50;;;;;;;1.77;1.50;;;29.50;47.30;;;;;;5056211;28;20028;-81
2022/07/24 11:11:19;;;;;;;1.73;1.58;;;29.50;47.10;;;;;;5070805;28;20032;-84
2022/07/24 11:13:50;;;;;;;2.05;1.75;;;29.60;47.10;;;;;;5074712;28;20486;-83
2022/07/24 11:16:21;;;;;;;1.70;1.60;;;29.70;47.10;;;;;;5058271;28;20028;-82
2022/07/24 11:18:49;;;;;;;2.78;1.58;;;29.70;46.90;;;;;;5078828;28;20030;-82
2022/07/24 11:21:28;;;;;;;1.63;1.45;;;29.70;46.90;;;;;;5074103;28;20116;-83
2022/07/24 11:24:13;;;;;;;2.55;1.92;;;29.80;46.90;;;;;;5081573;28;20024;-84
2022/07/24 11:26:40;;;;;;;2.60;1.65;;;29.80;46.70;;;;;;5073673;28;20056;-83
2022/07/24 11:29:26;;;;;;;1.90;1.60;;;29.90;46.70;;;;;;5072066;28;20464;-83
2022/07/24 11:32:04;;;;;;;1.92;1.60;;;29.90;46.60;;;;;;5076798;28;20353;-84
2022/07/24 11:34:31;;;;;;;1.67;1.58;;;29.90;46.60;;;;;;5088161;28;20028;-84
2022/07/24 11:36:59;;;;;;;2.00;1.80;;;29.90;46.60;;;;;;5076337;28;20043;-83
2022/07/24 11:39:36;;;;;;;1.90;1.70;;;29.90;46.60;;;;;;5072912;28;20024;-83
2022/07/24 11:42:10;;;;;;;2.03;1.80;;;30.00;46.70;;;;;;5078976;28;20252;-83
2022/07/24 11:44:43;;;;;;;;;;;30.00;46.70;;;;;;5089210;28;20103;-83
2022/07/24 11:47:20;;;;;;;3.00;1.60;;;30.00;46.90;;;;;;5074794;28;19954;-83
2022/07/24 11:49:50;;;;;;;2.00;1.42;;;30.00;46.70;;;;;;5077300;28;20063;-83
2022/07/24 11:52:23;;;;;;;1.77;1.50;;;30.00;46.60;;;;;;5089820;28;20034;-86
2022/07/24 11:54:58;;;;;;;2.95;1.65;;;30.00;46.60;;;;;;5071276;28;20035;-84
2022/07/24 11:57:35;;;;;;;2.55;1.75;;;30.00;46.50;;;;;;5091725;28;20039;-84
2022/07/24 12:00:09;;;;;;;1.98;1.60;;;30.10;46.50;;;;;;5056946;28;20066;-84
2022/07/24 12:02:54;;;;;;;1.55;1.45;;;30.10;46.50;;;;;;5086416;28;20034;-86
2022/07/24 12:05:37;;;;;;;2.90;1.70;;;30.10;46.40;;;;;;5071565;28;20039;-83
2022/07/24 12:08:15;;;;;;;2.22;1.70;;;30.10;46.40;;;;;;5067982;28;20107;-83
2022/07/24 12:10:48;;;;;;;2.17;1.70;;;30.10;46.40;;;;;;5073323;28;20028;-83
2022/07/24 12:13:20;;;;;;;1.55;1.40;;;30.10;46.40;;;;;;5075195;28;20118;-84
2022/07/24 12:15:46;;;;;;;1.95;1.60;;;30.10;46.70;;;;;;5053539;28;20487;-83
2022/07/24 12:18:12;;;;;;;2.17;1.50;;;30.10;46.80;;;;;;5056928;28;20644;-81
2022/07/24 12:20:43;;;;;;;2.72;1.60;;;30.10;46.70;;;;;;5055694;28;20415;-82
2022/07/24 12:23:14;;;;;;;1.73;1.63;;;30.10;46.70;;;;;;5093594;28;20067;-83
2022/07/24 12:25:40;;;;;;;1.70;1.40;;;30.10;46.70;;;;;;5057677;28;20040;-82
2022/07/24 12:28:15;;;;;;;2.08;1.73;;;30.10;46.70;;;;;;5059607;28;20028;-83
2022/07/24 12:30:51;;;;;;;1.60;1.50;;;30.10;46.60;;;;;;5074063;28;20089;-84
2022/07/24 12:33:29;;;;;;;1.70;1.50;;;30.20;46.80;;;;;;5069594;28;20020;-83
2022/07/24 12:35:55;;;;;;;2.05;1.50;;;30.20;47.00;;;;;;5060194;28;20042;-83
2022/07/24 12:38:30;;;;;;;1.90;1.60;;;30.20;47.00;;;;;;5055231;28;20056;-82
2022/07/24 12:41:06;;;;;;;2.28;1.73;;;30.20;47.00;;;;;;5073953;28;20070;-81
2022/07/24 12:43:48;;;;;;;1.92;1.73;;;30.20;47.10;;;;;;5088953;28;20069;-82
2022/07/24 12:46:14;;;;;;;2.20;1.83;;;30.20;47.20;;;;;;5067669;28;20036;-83
2022/07/24 12:48:39;;;;;;;1.60;1.50;;;30.30;47.20;;;;;;5067330;28;20045;-82
2022/07/24 12:51:09;;;;;;;2.40;1.77;;;30.30;47.10;;;;;;5052132;28;20070;-84
2022/07/24 12:54:02;;;;;;;1.40;1.30;;;30.30;47.20;;;;;;5068668;28;20195;-86